sensor_id;sensor_type;location;lat;lon;timestamp;P1;durP1;ratioP1;P2;durP2;ratioP2
8092;SDS011;4089;52.420;13.334;2024-01-15T18:43:01;29.83;;;3.33;;
8092;SDS011;4089;52.420;13.334;2024-01-15T18:45:28;19.33;;;3.63;;
8092;SDS011;4089;52.420;13.334;2024-01-15T18:47:55;20.10;;;3.60;;
8092;SDS011;4089;52.420;13.334;2024-01-15T18:50:22;19.00;;;3.77;;
8092;SDS011;4089;52.420;13.334;2024-01-15T18:52:49;18.17;;;3.93;;
8092;SDS011;4089;52.420;13.334;2024-01-15T18:55:19;20.70;;;3.60;;
8092;SDS011;4089;52.420;13.334;2024-01-15T18:57:47;22.63;;;4.00;;
8092;SDS011;4089;52.420;13.334;2024-01-15T19:00:17;24.70;;;3.77;;
8092;SDS011;4089;52.420;13.334;2024-01-15T19:02:47;22.73;;;3.20;;
8092;SDS011;4089;52.420;13.334;2024-01-15T19:05:14;26.80;;;3.40;;
8092;SDS011;4089;52.420;13.334;2024-01-15T19:07:41;21.83;;;3.53;;
8092;SDS011;4089;52.420;13.334;2024-01-15T19:10:11;22.80;;;3.67;;
8092;SDS011;4089;52.420;13.334;2024-01-15T19:12:38;23.30;;;3.63;;
8092;SDS011;4089;52.420;13.334;2024-01-15T19:15:05;22.30;;;3.30;;
8092;SDS011;4089;52.420;13.334;2024-01-15T19:17:33;20.37;;;2.57;;
8092;SDS011;4089;52.420;13.334;2024-01-15T19:20:00;20.80;;;2.37;;
8092;SDS011;4089;52.420;13.334;2024-01-15T19:22:27;22.73;;;3.60;;
8092;SDS011;4089;52.420;13.334;2024-01-15T19:24:54;22.20;;;2.90;;
8092;SDS011;4089;52.420;13.334;2024-01-15T19:27:21;21.03;;;2.10;;
8092;SDS011;4089;52.420;13.334;2024-01-15T19:29:48;20.87;;;1.93;;
8092;SDS011;4089;52.420;13.334;2024-01-15T19:32:15;19.83;;;1.77;;
8092;SDS011;4089;52.420;13.334;2024-01-15T19:34:41;19.67;;;1.70;;
8092;SDS011;4089;52.420;13.334;2024-01-15T19:37:08;20.87;;;1.30;;
8092;SDS011;4089;52.420;13.334;2024-01-15T19:39:35;21.83;;;1.17;;
8092;SDS011;4089;52.420;13.334;2024-01-15T19:42:02;20.77;;;1.40;;
8092;SDS011;4089;52.420;13.334;2024-01-15T19:44:29;19.43;;;1.87;;
8092;SDS011;4089;52.420;13.334;2024-01-15T19:46:56;22.10;;;1.33;;
8092;SDS011;4089;52.420;13.334;2024-01-15T19:49:24;26.43;;;1.60;;
8092;SDS011;4089;52.420;13.334;2024-01-15T19:51:51;19.77;;;1.60;;
8092;SDS011;4089;52.420;13.334;2024-01-15T19:54:18;28.93;;;2.00;;
8092;SDS011;4089;52.420;13.334;2024-01-15T19:56:45;20.27;;;1.70;;
8092;SDS011;4089;52.420;13.334;2024-01-15T19:59:12;20.83;;;1.43;;
8092;SDS011;4089;52.420;13.334;2024-01-15T20:01:39;22.17;;;1.40;;
8092;SDS011;4089;52.420;13.334;2024-01-15T20:04:05;20.80;;;1.60;;
8092;SDS011;4089;52.420;13.334;2024-01-15T20:06:32;24.77;;;1.60;;
8092;SDS011;4089;52.420;13.334;2024-01-15T20:08:59;19.80;;;1.47;;
8092;SDS011;4089;52.420;13.334;2024-01-15T20:11:27;24.50;;;1.67;;
8092;SDS011;4089;52.420;13.334;2024-01-15T20:13:54;21.20;;;2.20;;
8092;SDS011;4089;52.420;13.334;2024-01-15T20:16:20;20.00;;;1.83;;
8092;SDS011;4089;52.420;13.334;2024-01-15T20:18:48;21.57;;;2.07;;
8092;SDS011;4089;52.420;13.334;2024-01-15T20:21:15;20.73;;;1.37;;
8092;SDS011;4089;52.420;13.334;2024-01-15T20:23:42;19.70;;;1.47;;
8092;SDS011;4089;52.420;13.334;2024-01-15T20:26:23;18.33;;;1.10;;
8092;SDS011;4089;52.420;13.334;2024-01-15T20:28:50;19.47;;;1.50;;
8092;SDS011;4089;52.420;13.334;2024-01-15T20:31:18;18.37;;;1.70;;
8092;SDS011;4089;52.420;13.334;2024-01-15T20:33:45;32.73;;;1.90;;
8092;SDS011;4089;52.420;13.334;2024-01-15T20:36:12;19.93;;;1.30;;
8092;SDS011;4089;52.420;13.334;2024-01-15T20:38:39;22.43;;;1.67;;
8092;SDS011;4089;52.420;13.334;2024-01-15T20:41:06;21.07;;;1.83;;
8092;SDS011;4089;52.420;13.334;2024-01-15T20:43:33;32.43;;;2.60;;
8092;SDS011;4089;52.420;13.334;2024-01-15T20:46:01;29.87;;;2.80;;
8092;SDS011;4089;52.420;13.334;2024-01-15T20:48:28;20.97;;;1.87;;
8092;SDS011;4089;52.420;13.334;2024-01-15T20:50:55;20.70;;;2.00;;
8092;SDS011;4089;52.420;13.334;2024-01-15T20:53:24;19.40;;;1.43;;
8092;SDS011;4089;52.420;13.334;2024-01-15T20:55:51;20.77;;;2.30;;
8092;SDS011;4089;52.420;13.334;2024-01-15T20:58:21;18.33;;;1.70;;
8092;SDS011;4089;52.420;13.334;2024-01-15T21:00:49;22.63;;;1.90;;
8092;SDS011;4089;52.420;13.334;2024-01-15T21:03:17;20.70;;;1.87;;
8092;SDS011;4089;52.420;13.334;2024-01-15T21:05:44;23.20;;;1.50;;
8092;SDS011;4089;52.420;13.334;2024-01-15T21:08:12;22.67;;;2.10;;
8092;SDS011;4089;52.420;13.334;2024-01-15T21:10:38;22.07;;;1.47;;
8092;SDS011;4089;52.420;13.334;2024-01-15T21:13:06;22.53;;;1.60;;
8092;SDS011;4089;52.420;13.334;2024-01-15T21:15:33;20.80;;;2.00;;
8092;SDS011;4089;52.420;13.334;2024-01-15T21:18:01;21.90;;;2.13;;
8092;SDS011;4089;52.420;13.334;2024-01-15T21:20:29;21.70;;;1.57;;
8092;SDS011;4089;52.420;13.334;2024-01-15T21:22:57;19.40;;;1.97;;
8092;SDS011;4089;52.420;13.334;2024-01-15T21:25:24;18.70;;;1.67;;
8092;SDS011;4089;52.420;13.334;2024-01-15T21:27:51;20.10;;;1.87;;
8092;SDS011;4089;52.420;13.334;2024-01-15T21:30:19;21.70;;;1.73;;
8092;SDS011;4089;52.420;13.334;2024-01-15T21:32:47;19.03;;;1.50;;
8092;SDS011;4089;52.420;13.334;2024-01-15T21:35:14;21.53;;;1.83;;
8092;SDS011;4089;52.420;13.334;2024-01-15T21:37:41;20.70;;;1.63;;
8092;SDS011;4089;52.420;13.334;2024-01-15T21:40:09;19.20;;;1.37;;
8092;SDS011;4089;52.420;13.334;2024-01-15T21:42:37;25.40;;;1.70;;
8092;SDS011;4089;52.420;13.334;2024-01-15T21:45:07;19.00;;;1.77;;
8092;SDS011;4089;52.420;13.334;2024-01-15T21:47:35;20.80;;;1.50;;
8092;SDS011;4089;52.420;13.334;2024-01-15T21:50:04;19.30;;;2.00;;
8092;SDS011;4089;52.420;13.334;2024-01-15T21:52:31;19.13;;;1.37;;
8092;SDS011;4089;52.420;13.334;2024-01-15T21:54:58;20.13;;;1.13;;
8092;SDS011;4089;52.420;13.334;2024-01-15T21:57:25;21.17;;;1.77;;
8092;SDS011;4089;52.420;13.334;2024-01-15T21:59:52;20.20;;;1.20;;
8092;SDS011;4089;52.420;13.334;2024-01-15T22:02:19;24.13;;;2.13;;
8092;SDS011;4089;52.420;13.334;2024-01-15T22:04:46;22.60;;;1.30;;
8092;SDS011;4089;52.420;13.334;2024-01-15T22:07:13;22.40;;;1.80;;
8092;SDS011;4089;52.420;13.334;2024-01-15T22:09:40;22.13;;;1.50;;
8092;SDS011;4089;52.420;13.334;2024-01-15T22:12:08;26.30;;;1.70;;
8092;SDS011;4089;52.420;13.334;2024-01-15T22:14:34;21.80;;;1.53;;
8092;SDS011;4089;52.420;13.334;2024-01-15T22:17:01;21.07;;;2.10;;
8092;SDS011;4089;52.420;13.334;2024-01-15T22:19:28;23.03;;;1.40;;
8092;SDS011;4089;52.420;13.334;2024-01-15T22:21:55;27.07;;;2.03;;
8092;SDS011;4089;52.420;13.334;2024-01-15T22:24:22;19.30;;;1.70;;
8092;SDS011;4089;52.420;13.334;2024-01-15T22:26:49;17.90;;;1.30;;
8092;SDS011;4089;52.420;13.334;2024-01-15T22:29:16;25.37;;;1.13;;
8092;SDS011;4089;52.420;13.334;2024-01-15T22:31:43;26.67;;;1.87;;
8092;SDS011;4089;52.420;13.334;2024-01-15T22:34:10;20.27;;;1.50;;
8092;SDS011;4089;52.420;13.334;2024-01-15T22:36:37;22.77;;;1.70;;
8092;SDS011;4089;52.420;13.334;2024-01-15T22:39:04;26.33;;;1.70;;
8092;SDS011;4089;52.420;13.334;2024-01-15T22:41:31;29.17;;;1.93;;
8092;SDS011;4089;52.420;13.334;2024-01-15T22:43:57;19.70;;;1.20;;
8092;SDS011;4089;52.420;13.334;2024-01-15T22:46:24;20.33;;;1.33;;
8092;SDS011;4089;52.420;13.334;2024-01-15T22:48:51;25.30;;;1.63;;
8092;SDS011;4089;52.420;13.334;2024-01-15T22:51:18;20.57;;;1.33;;
8092;SDS011;4089;52.420;13.334;2024-01-15T22:53:45;19.70;;;1.40;;
8092;SDS011;4089;52.420;13.334;2024-01-15T22:56:12;23.77;;;1.70;;
8092;SDS011;4089;52.420;13.334;2024-01-15T22:58:39;21.73;;;1.40;;
8092;SDS011;4089;52.420;13.334;2024-01-15T23:01:06;18.03;;;1.17;;
8092;SDS011;4089;52.420;13.334;2024-01-15T23:03:33;24.00;;;1.80;;
8092;SDS011;4089;52.420;13.334;2024-01-15T23:05:59;20.63;;;1.40;;
8092;SDS011;4089;52.420;13.334;2024-01-15T23:08:27;20.10;;;1.70;;
8092;SDS011;4089;52.420;13.334;2024-01-15T23:10:53;21.57;;;1.80;;
8092;SDS011;4089;52.420;13.334;2024-01-15T23:13:20;20.20;;;1.53;;
8092;SDS011;4089;52.420;13.334;2024-01-15T23:15:48;26.87;;;2.10;;
8092;SDS011;4089;52.420;13.334;2024-01-15T23:18:15;25.53;;;1.70;;
8092;SDS011;4089;52.420;13.334;2024-01-15T23:20:42;20.73;;;1.43;;
8092;SDS011;4089;52.420;13.334;2024-01-15T23:23:09;21.37;;;2.50;;
8092;SDS011;4089;52.420;13.334;2024-01-15T23:25:36;27.60;;;1.83;;
8092;SDS011;4089;52.420;13.334;2024-01-15T23:28:04;30.27;;;1.70;;
8092;SDS011;4089;52.420;13.334;2024-01-15T23:30:32;23.10;;;1.80;;
8092;SDS011;4089;52.420;13.334;2024-01-15T23:32:58;22.73;;;1.90;;
8092;SDS011;4089;52.420;13.334;2024-01-15T23:35:26;19.97;;;1.87;;
8092;SDS011;4089;52.420;13.334;2024-01-15T23:37:53;30.70;;;2.30;;
8092;SDS011;4089;52.420;13.334;2024-01-15T23:40:19;19.17;;;1.40;;
8092;SDS011;4089;52.420;13.334;2024-01-15T23:42:46;19.50;;;1.33;;
8092;SDS011;4089;52.420;13.334;2024-01-15T23:45:13;20.40;;;1.80;;
8092;SDS011;4089;52.420;13.334;2024-01-15T23:47:40;20.27;;;1.33;;
8092;SDS011;4089;52.420;13.334;2024-01-15T23:50:07;19.50;;;1.70;;
8092;SDS011;4089;52.420;13.334;2024-01-15T23:52:34;18.60;;;1.67;;
8092;SDS011;4089;52.420;13.334;2024-01-15T23:55:00;20.80;;;1.90;;
8092;SDS011;4089;52.420;13.334;2024-01-15T23:57:27;24.10;;;1.90;;
8092;SDS011;4089;52.420;13.334;2024-01-15T23:59:54;26.13;;;2.00;;
